• Join FlightAware (Why Join?)
  • Login
  • US Flag 
11:16PM EST


 

Airport Tracker/Info


-or-


 

Live Flight TrackerFlight Track Log ✈ N258PA ✈ 22-Feb-2014 ✈ KALB - KPTD

Flight Track Log - Related Links

Times and Time Zones

All times are in EST time to prevent confusion due to time zone crossing. See the N258PA flight status page for this flight to view local times or setup timezone preferences in your user account.

Time Position Orientation Groundspeed Altitude Reporting Facility
EST Latitude Longitude Course Direction KTS MPH feet Rate Location/Type
04:17PM 42.7492 -73.8258 347° North 90 104 500  Level Boston Center
04:17PM 42.7656 -73.8311 347° North 101 116 800 420 Climbing Boston Center
04:18PM 42.7756 -73.8308 North 104 120 1,000 420 Climbing Boston Center
04:18PM 42.7911 -73.8311 359° North 107 123 1,200 540 Climbing Boston Center
04:19PM 42.8031 -73.8300 North 99 114 1,600 660 Climbing Boston Center
04:19PM 42.8189 -73.8319 355° North 101 116 1,900 660 Climbing Boston Center
04:20PM 42.8339 -73.8336 355° North 103 119 2,300 540 Climbing Boston Center
04:20PM 42.8458 -73.8381 345° North 95 109 2,500 360 Climbing Boston Center
04:21PM 42.8606 -73.8425 348° North 100 115 2,700 480 Climbing Boston Center
04:21PM 42.8719 -73.8469 344° North 99 114 3,000 540 Climbing Boston Center
04:22PM 42.8853 -73.8536 340° North 94 108 3,300 540 Climbing Boston Center
04:22PM 42.8958 -73.8581 343° North 95 109 3,500 480 Climbing Boston Center
04:23PM 42.9100 -73.8653 340° North 94 108 3,800 480 Climbing Boston Center
04:23PM 42.9197 -73.8689 345° North 91 105 4,000 360 Climbing Boston Center
04:24PM 42.9342 -73.8750 343° North 92 106 4,200 480 Climbing Boston Center
04:24PM 42.9433 -73.8800 338° Northwest 94 108 4,500 540 Climbing Boston Center
04:25PM 42.9625 -73.8850 349° North 97 112 4,800 360 Climbing Boston Center
04:25PM 42.9717 -73.8897 339° North 93 107 4,900 360 Climbing Boston Center
04:26PM 42.9858 -73.8969 340° North 92 106 5,200 360 Climbing Boston Center
04:26PM 42.9950 -73.9033 333° Northwest 91 105 5,300 240 Climbing Boston Center
04:27PM 43.0092 -73.9092 343° North 89 102 5,500 360 Climbing Boston Center
04:27PM 43.0186 -73.9144 338° Northwest 89 102 5,700 360 Climbing Boston Center
04:28PM 43.0325 -73.9231 336° Northwest 92 106 5,900 360 Climbing Boston Center
04:28PM 43.0419 -73.9283 338° Northwest 91 105 6,100 240 Climbing Boston Center
04:29PM 43.0564 -73.9336 345° North 89 102 6,200 240 Climbing Boston Center
04:29PM 43.0656 -73.9392 336° Northwest 91 105 6,400 360 Climbing Boston Center
04:30PM 43.0822 -73.9450 346° North 89 102 6,600 240 Climbing Boston Center
04:30PM 43.0900 -73.9475 347° North 92 106 6,700 360 Climbing Boston Center
04:31PM 43.1092 -73.9522 350° North 98 113 7,000 420 Climbing Boston Center
04:31PM 43.1186 -73.9544 350° North 96 110 7,200 360 Climbing Boston Center
04:32PM 43.1350 -73.9597 347° North 95 109 7,400 360 Climbing Boston Center
04:32PM 43.1450 -73.9636 344° North 96 110 7,600 240 Climbing Boston Center
04:33PM 43.1592 -73.9694 343° North 89 102 7,700 180 Climbing Boston Center
04:33PM 43.1686 -73.9744 339° North 89 102 7,800 180 Climbing Boston Center
04:34PM 43.1828 -73.9806 343° North 90 104 7,900 180 Climbing Boston Center
04:34PM 43.1944 -73.9864 340° North 89 102 8,000 60 Climbing Boston Center
04:35PM 43.2058 -73.9939 334° Northwest 90 104 8,000  Level Boston Center
04:35PM 43.2178 -74.0003 339° North 90 104 8,000 -240 Level Boston Center
04:36PM 43.2317 -74.0078 339° North 93 107 7,800 -240 Descending Boston Center
04:37PM 43.2572 -74.0217 338° Northwest 98 113 7,700 -60 Descending Boston Center
04:38PM 43.2806 -74.0353 337° Northwest 90 104 7,700 -120 Level Boston Center
04:39PM 43.3061 -74.0475 341° North 95 109 7,500 -300 Descending Boston Center
04:40PM 43.3292 -74.0606 338° Northwest 94 108 7,100 -300 Descending Boston Center
04:41PM 43.3586 -74.0761 339° North 107 123 6,900 -240 Descending Boston Center
04:42PM 43.3842 -74.0883 341° North 98 113 6,700 -180 Descending Boston Center
04:43PM 43.4056 -74.0994 339° North 97 112 6,600 -180 Descending Boston Center
04:44PM 43.4347 -74.1139 340° North 105 121 6,400 -180 Descending Boston Center
04:45PM 43.4703 -74.1231 349° North 109 125 6,300 -180 Descending Boston Center
04:46PM 43.4969 -74.1356 341° North 104 120 6,100  Descending Boston Center
04:47PM 43.5253 -74.1456 346° North 104 120 6,300 60 Climbing Boston Center
04:48PM 43.5500 -74.1569 342° North 98 113 6,300  Level Boston Center
04:49PM 43.5781 -74.1689 343° North 102 117 6,300 -120 Level Boston Center
04:50PM 43.6058 -74.1775 347° North 103 119 6,100 -240 Descending Boston Center
04:51PM 43.6353 -74.1872 347° North 105 121 5,900  Descending Boston Center
04:52PM 43.6636 -74.1881 359° North 105 121 6,100 240 Climbing Boston Center
04:53PM 43.6903 -74.1889 359° North 102 117 6,400 240 Climbing Boston Center
04:54PM 43.7178 -74.1939 353° North 99 114 6,600  Climbing Boston Center
04:55PM 43.7481 -74.2122 336° Northwest 98 113 6,500 -60 Descending Boston Center
04:56PM 43.7747 -74.2269 338° Northwest 101 116 6,500 -180 Level Boston Center
04:57PM 43.8022 -74.2444 335° Northwest 106 122 6,200 -240 Descending Boston Center
04:58PM 43.8292 -74.2617 335° Northwest 107 123 6,100 -180 Descending Boston Center
04:59PM 43.8542 -74.2808 331° Northwest 106 122 5,900 -240 Descending Boston Center
05:00PM 43.8775 -74.3014 328° Northwest 103 119 5,700 -120 Descending Boston Center
05:01PM 43.9056 -74.3150 341° North 104 120 5,700  Level Boston Center
05:02PM 43.9347 -74.3269 344° North 108 124 5,700 60 Level Boston Center
05:03PM 43.9614 -74.3400 341° North 105 121 5,900  Climbing Boston Center
05:04PM 43.9856 -74.3544 337° Northwest 99 114 5,800 -60 Descending Boston Center
05:05PM 44.0153 -74.3761 332° Northwest 99 114 5,800  Level Boston Center
05:07PM 44.0444 -74.3939 336° Northwest 109 125 5,800 -60 Level Boston Center
05:08PM 44.0725 -74.4086 339° North 109 125 5,700 -60 Descending Boston Center
05:09PM 44.0975 -74.4233 337° Northwest 103 119 5,700 -60 Level Boston Center
05:10PM 44.1250 -74.4403 336° Northwest 105 121 5,600 -180 Descending Boston Center
05:11PM 44.1508 -74.4553 337° Northwest 104 120 5,400 -240 Descending Boston Center
05:12PM 44.1767 -74.4725 334° Northwest 103 119 5,200 -60 Descending Boston Center
05:13PM 44.2028 -74.4872 338° Northwest 102 117 5,300 60 Climbing Boston Center
05:14PM 44.2275 -74.5067 331° Northwest 103 119 5,400 60 Climbing Boston Center
05:15PM 44.2544 -74.5308 327° Northwest 99 114 5,500 60 Climbing Boston Center
05:16PM 44.2803 -74.5428 342° North 98 113 5,600  Climbing Boston Center
05:17PM 44.3078 -74.5497 350° North 101 116 5,600 -120 Level Boston Center
05:18PM 44.3358 -74.5672 336° Northwest 106 122 5,400 -180 Descending Boston Center
05:19PM 44.3569 -74.5875 326° Northwest 99 114 5,300 -240 Descending Boston Center
05:20PM 44.3761 -74.6128 317° Northwest 94 108 5,000 -300 Descending Boston Center
05:21PM 44.3961 -74.6367 320° Northwest 95 109 4,700 -300 Descending Boston Center
05:22PM 44.4200 -74.6617 323° Northwest 94 108 4,400 -300 Descending Boston Center
05:23PM 44.4381 -74.6792 325° Northwest 93 107 4,100 -240 Descending Boston Center
05:24PM 44.4617 -74.7044 323° Northwest 93 107 4,000 -120 Descending Boston Center